Time;durP1;ratioP1;P1;durP2;ratioP2;P2;SDS_P1;SDS_P2;PMS_P1;PMS_P2;Temp;Humidity;BMP_temperature;BMP_pressure;BME280_temperature;BME280_humidity;BME280_pressure;Samples;Min_cycle;Max_cycle;Signal;HPM_P1;HPM_P2
2023/04/27 00:00:27;;;;;;;6.43;4.57;;;6.50;96.50;;;;;;5073199;28;20216;-60
2023/04/27 00:02:55;;;;;;;9.65;5.88;;;6.50;96.70;;;;;;5072600;28;20228;-62
2023/04/27 00:05:22;;;;;;;6.22;5.05;;;6.50;96.90;;;;;;5073540;28;20581;-62
2023/04/27 00:07:49;;;;;;;8.20;5.20;;;6.50;97.00;;;;;;5073059;28;20197;-61
2023/04/27 00:10:15;;;;;;;8.18;5.45;;;6.50;97.20;;;;;;5073007;28;20208;-62
2023/04/27 00:12:42;;;;;;;7.88;4.97;;;6.50;97.30;;;;;;5075738;28;20741;-61
2023/04/27 00:15:10;;;;;;;5.40;4.50;;;6.40;97.50;;;;;;5076457;28;20672;-61
2023/04/27 00:17:37;;;;;;;5.47;4.70;;;6.40;97.60;;;;;;5073396;28;20702;-62
2023/04/27 00:20:10;;;;;;;6.85;4.78;;;6.40;97.70;;;;;;5073704;28;20596;-62
2023/04/27 00:22:37;;;;;;;7.43;4.45;;;6.40;97.90;;;;;;5074460;28;20578;-64
2023/04/27 00:25:04;;;;;;;7.25;4.90;;;6.40;98.20;;;;;;5072669;28;20242;-65
2023/04/27 00:27:31;;;;;;;7.10;4.20;;;6.40;98.30;;;;;;5075415;28;20201;-65
2023/04/27 00:29:58;;;;;;;7.57;5.30;;;6.40;98.40;;;;;;5076590;28;20200;-64
2023/04/27 00:32:25;;;;;;;6.50;4.85;;;6.40;98.40;;;;;;5076964;28;20299;-65
2023/04/27 00:34:51;;;;;;;6.93;5.03;;;6.40;98.50;;;;;;5076923;28;20209;-64
2023/04/27 00:37:20;;;;;;;6.85;4.82;;;6.40;98.50;;;;;;5076914;28;20315;-64
2023/04/27 00:39:46;;;;;;;9.45;4.97;;;6.40;98.60;;;;;;5076879;28;20204;-64
2023/04/27 00:42:16;;;;;;;9.40;5.40;;;6.40;98.60;;;;;;5076789;28;20224;-64
2023/04/27 00:44:42;;;;;;;6.45;4.70;;;6.30;98.60;;;;;;5076568;28;20624;-64
2023/04/27 00:47:10;;;;;;;8.57;5.47;;;6.40;98.70;;;;;;5076651;28;20193;-65
2023/04/27 00:49:37;;;;;;;10.25;4.65;;;6.30;98.70;;;;;;5076701;28;20608;-63
2023/04/27 00:52:05;;;;;;;7.88;5.63;;;6.30;99.10;;;;;;5076479;28;20197;-64
2023/04/27 00:54:33;;;;;;;8.50;5.35;;;6.30;98.80;;;;;;5076388;28;20307;-64
2023/04/27 00:57:01;;;;;;;10.60;4.95;;;6.30;98.80;;;;;;5076118;28;20311;-64
2023/04/27 00:59:28;;;;;;;7.72;5.07;;;6.30;98.90;;;;;;5076030;28;20690;-64
2023/04/27 01:01:56;;;;;;;6.80;4.57;;;6.30;98.90;;;;;;5076309;28;20204;-63
2023/04/27 01:04:23;;;;;;;5.65;4.55;;;6.20;99.10;;;;;;5076319;28;20216;-64
2023/04/27 01:06:50;;;;;;;8.93;4.47;;;6.20;99.20;;;;;;5076241;28;20193;-64
2023/04/27 01:09:18;;;;;;;7.03;4.35;;;6.20;99.30;;;;;;5076127;28;20262;-65
2023/04/27 01:11:46;;;;;;;6.82;4.03;;;6.20;99.20;;;;;;5076146;28;20197;-66
2023/04/27 01:14:13;;;;;;;6.85;4.53;;;6.10;99.20;;;;;;5075843;28;20225;-63
2023/04/27 01:16:40;;;;;;;7.25;4.10;;;6.00;99.30;;;;;;5075804;28;20216;-65
2023/04/27 01:19:07;;;;;;;8.80;3.85;;;6.00;99.40;;;;;;5076061;28;20200;-64
2023/04/27 01:21:34;;;;;;;9.30;4.80;;;5.90;99.40;;;;;;5075920;28;20201;-64
2023/04/27 01:24:04;;;;;;;7.50;5.15;;;5.90;99.60;;;;;;5075980;28;20217;-64
2023/04/27 01:26:31;;;;;;;8.30;4.78;;;5.80;99.70;;;;;;5075991;28;20216;-65
2023/04/27 01:28:58;;;;;;;11.00;4.65;;;5.70;99.90;;;;;;5076020;28;20201;-65
2023/04/27 01:31:25;;;;;;;8.13;4.10;;;5.70;99.90;;;;;;5075951;28;20212;-64
2023/04/27 01:33:52;;;;;;;6.07;3.90;;;5.70;99.90;;;;;;5075475;28;20228;-64
2023/04/27 01:36:18;;;;;;;5.03;4.35;;;5.60;99.90;;;;;;5075835;28;20221;-64
2023/04/27 01:38:45;;;;;;;7.30;4.72;;;5.60;99.90;;;;;;5075171;28;20197;-64
2023/04/27 01:41:13;;;;;;;7.05;4.32;;;5.50;99.90;;;;;;5075482;28;20201;-64
2023/04/27 01:43:41;;;;;;;4.88;4.00;;;5.50;99.90;;;;;;5075663;28;20732;-64
2023/04/27 01:46:08;;;;;;;9.18;4.82;;;5.40;99.90;;;;;;5076573;28;20201;-65
2023/04/27 01:48:36;;;;;;;8.05;4.32;;;5.40;99.90;;;;;;5077195;28;20204;-65
2023/04/27 01:51:02;;;;;;;5.38;4.35;;;5.30;99.90;;;;;;5076825;28;20201;-64
2023/04/27 01:53:29;;;;;;;7.45;4.20;;;5.30;99.90;;;;;;5078669;28;20232;-65
2023/04/27 01:55:56;;;;;;;7.15;5.03;;;5.20;99.90;;;;;;5078072;28;20205;-63
2023/04/27 01:58:24;;;;;;;6.05;4.60;;;5.20;99.90;;;;;;5076001;28;20595;-64
2023/04/27 02:00:51;;;;;;;8.90;4.95;;;5.10;99.90;;;;;;5076063;28;20224;-64
2023/04/27 02:03:18;;;;;;;5.65;4.10;;;5.10;99.90;;;;;;5076126;28;20225;-64
2023/04/27 02:05:45;;;;;;;4.88;4.10;;;5.00;99.90;;;;;;5075804;28;20201;-65
2023/04/27 02:08:12;;;;;;;9.88;4.22;;;5.00;99.90;;;;;;5075680;28;20552;-65
2023/04/27 02:10:39;;;;;;;15.20;5.78;;;4.90;99.90;;;;;;5076003;28;20200;-64
2023/04/27 02:13:06;;;;;;;7.93;5.05;;;4.90;99.90;;;;;;5076245;28;20221;-63
2023/04/27 02:15:34;;;;;;;12.65;5.28;;;4.90;99.90;;;;;;5076046;28;20197;-65
2023/04/27 02:18:02;;;;;;;6.97;4.55;;;4.80;99.90;;;;;;5074892;28;20715;-63
2023/04/27 02:20:30;;;;;;;10.98;5.05;;;4.80;99.90;;;;;;5075378;28;20200;-63
2023/04/27 02:22:57;;;;;;;5.03;4.43;;;4.80;99.90;;;;;;5074734;28;20649;-64
2023/04/27 02:25:23;;;;;;;8.85;5.10;;;4.70;99.90;;;;;;5075515;28;20244;-64
2023/04/27 02:27:50;;;;;;;6.97;4.78;;;4.70;99.90;;;;;;5075746;28;20631;-64
2023/04/27 02:30:17;;;;;;;7.63;5.05;;;4.60;99.90;;;;;;5075374;28;20201;-63
2023/04/27 02:32:46;;;;;;;7.03;4.30;;;4.60;99.90;;;;;;5076823;28;20229;-65
2023/04/27 02:35:13;;;;;;;8.90;4.72;;;4.60;99.90;;;;;;5077983;28;20197;-63
2023/04/27 02:37:40;;;;;;;6.70;5.15;;;4.50;99.90;;;;;;5079110;28;20220;-64
2023/04/27 02:40:08;;;;;;;7.70;5.07;;;4.50;99.90;;;;;;5079011;28;20201;-63
2023/04/27 02:42:37;;;;;;;7.13;4.40;;;4.40;99.90;;;;;;5078153;28;20917;-64
2023/04/27 02:45:05;;;;;;;7.18;4.05;;;4.40;99.90;;;;;;5079753;28;20197;-64
2023/04/27 02:47:32;;;;;;;6.45;4.25;;;4.40;99.90;;;;;;5080188;28;20201;-63
2023/04/27 02:50:00;;;;;;;11.70;5.38;;;4.30;99.90;;;;;;5078671;28;20201;-64
2023/04/27 02:52:27;;;;;;;7.07;4.22;;;4.30;99.90;;;;;;5080069;28;20568;-64
2023/04/27 02:54:54;;;;;;;5.95;3.85;;;4.30;99.90;;;;;;5077919;28;20204;-64
2023/04/27 02:57:20;;;;;;;10.40;4.40;;;4.20;99.90;;;;;;5074859;28;20304;-64
2023/04/27 02:59:47;;;;;;;9.77;5.55;;;4.20;99.90;;;;;;5074034;28;20205;-64
2023/04/27 03:02:14;;;;;;;8.13;4.90;;;4.20;99.90;;;;;;5073888;28;20564;-63
2023/04/27 03:04:42;;;;;;;11.63;5.47;;;4.20;99.90;;;;;;5074286;28;20203;-63
2023/04/27 03:07:11;;;;;;;8.80;5.00;;;4.20;99.90;;;;;;5074023;28;20201;-64
2023/04/27 03:09:37;;;;;;;10.43;4.90;;;4.20;99.90;;;;;;5073699;28;20200;-64
2023/04/27 03:12:05;;;;;;;7.88;3.85;;;4.20;99.90;;;;;;5073496;28;20670;-65
2023/04/27 03:14:31;;;;;;;11.60;5.15;;;4.20;99.90;;;;;;5073367;28;20228;-64
2023/04/27 03:16:58;;;;;;;10.80;4.50;;;4.20;99.90;;;;;;5073223;28;20729;-65
2023/04/27 03:19:25;;;;;;;11.00;4.85;;;4.20;99.90;;;;;;5076404;28;20201;-65
2023/04/27 03:21:51;;;;;;;5.35;4.20;;;4.20;99.90;;;;;;5075482;28;20306;-64
2023/04/27 03:24:20;;;;;;;7.97;5.18;;;4.10;99.90;;;;;;5073498;28;20596;-64
2023/04/27 03:26:47;;;;;;;7.85;4.00;;;4.10;99.90;;;;;;5073501;28;20629;-64
2023/04/27 03:29:14;;;;;;;9.25;4.78;;;4.10;99.90;;;;;;5073182;28;20670;-64
2023/04/27 03:31:40;;;;;;;10.20;5.28;;;4.10;99.90;;;;;;5073472;28;20201;-65
2023/04/27 03:34:07;;;;;;;5.60;4.38;;;4.10;99.90;;;;;;5073374;28;20591;-64
2023/04/27 03:36:34;;;;;;;7.28;4.40;;;4.10;99.90;;;;;;5073416;28;20209;-65
2023/04/27 03:39:00;;;;;;;8.93;5.00;;;4.10;99.90;;;;;;5073344;28;20311;-64
2023/04/27 03:41:28;;;;;;;7.65;5.13;;;4.00;99.90;;;;;;5073816;28;20210;-65
2023/04/27 03:43:55;;;;;;;7.93;4.93;;;4.00;99.90;;;;;;5073058;28;20236;-64
2023/04/27 03:46:22;;;;;;;8.57;5.32;;;4.00;99.90;;;;;;5073261;28;20205;-65
2023/04/27 03:48:48;;;;;;;7.57;4.93;;;4.00;99.90;;;;;;5073041;28;20201;-64
2023/04/27 03:51:15;;;;;;;9.05;4.22;;;4.00;99.90;;;;;;5073250;28;20209;-64
2023/04/27 03:53:42;;;;;;;10.85;4.10;;;3.90;99.90;;;;;;5073259;28;20221;-63
2023/04/27 03:56:09;;;;;;;8.15;4.70;;;3.90;99.90;;;;;;5073112;28;20201;-65
2023/04/27 03:58:37;;;;;;;7.15;5.03;;;3.90;99.90;;;;;;5073788;28;20294;-64
2023/04/27 04:01:04;;;;;;;8.35;5.35;;;3.80;99.90;;;;;;5073477;28;20279;-64
2023/04/27 04:03:31;;;;;;;12.07;5.22;;;3.80;99.90;;;;;;5073577;28;20220;-65
2023/04/27 04:05:57;;;;;;;9.55;4.90;;;3.80;99.90;;;;;;5073213;28;20251;-64
2023/04/27 04:11:36;;;;;;;9.05;4.70;;;3.80;99.90;;;;;;5133748;27;20912;-66
2023/04/27 04:14:03;;;;;;;7.88;4.97;;;3.70;99.90;;;;;;5132139;27;20215;-65
2023/04/27 04:16:30;;;;;;;6.60;5.18;;;3.70;99.90;;;;;;5132137;28;20209;-67
2023/04/27 04:18:57;;;;;;;11.13;4.82;;;3.70;99.90;;;;;;5132029;28;20199;-66
2023/04/27 04:21:23;;;;;;;8.73;5.22;;;3.70;99.90;;;;;;5131964;28;20206;-65
2023/04/27 04:23:50;;;;;;;11.82;5.07;;;3.80;99.90;;;;;;5131737;27;20219;-66
2023/04/27 04:26:17;;;;;;;13.60;4.28;;;3.90;99.90;;;;;;5131418;28;20230;-64
2023/04/27 04:28:45;;;;;;;8.75;4.15;;;4.00;99.90;;;;;;5131866;28;20202;-65
2023/04/27 04:31:13;;;;;;;5.85;3.95;;;4.10;99.90;;;;;;5131526;28;20207;-65
2023/04/27 04:33:40;;;;;;;8.00;5.28;;;4.30;99.90;;;;;;5131257;27;20226;-65
2023/04/27 04:36:07;;;;;;;7.30;4.85;;;4.50;99.90;;;;;;5131115;28;20202;-64
2023/04/27 04:38:34;;;;;;;11.23;4.50;;;4.60;99.90;;;;;;5131144;28;20198;-64
2023/04/27 04:41:01;;;;;;;9.68;4.32;;;4.80;99.90;;;;;;5130953;28;20203;-65
2023/04/27 04:43:28;;;;;;;8.52;5.38;;;4.90;99.90;;;;;;5130516;27;20223;-65
2023/04/27 04:45:56;;;;;;;6.47;4.50;;;5.10;99.90;;;;;;5130763;27;20199;-65
2023/04/27 04:48:23;;;;;;;9.88;4.85;;;5.30;99.90;;;;;;5132394;28;20234;-64
2023/04/27 04:50:50;;;;;;;7.80;4.38;;;5.60;99.90;;;;;;5130853;28;20233;-65
2023/04/27 04:53:17;;;;;;;5.82;4.72;;;5.80;99.90;;;;;;5130372;27;20715;-64
2023/04/27 04:55:43;;;;;;;10.15;5.15;;;5.90;99.90;;;;;;5133439;27;20203;-65
2023/04/27 04:58:10;;;;;;;8.50;5.03;;;6.10;99.90;;;;;;5134189;28;20210;-65
2023/04/27 05:00:37;;;;;;;6.10;5.05;;;6.20;99.90;;;;;;5130849;28;20191;-65
2023/04/27 05:03:06;;;;;;;7.68;4.80;;;6.30;99.90;;;;;;5130649;27;20306;-65
2023/04/27 05:05:32;;;;;;;10.25;5.45;;;6.30;99.90;;;;;;5132481;27;20206;-66
2023/04/27 05:07:59;;;;;;;9.45;5.45;;;6.40;99.90;;;;;;5130582;28;20213;-64
2023/04/27 05:10:26;;;;;;;8.25;4.85;;;6.60;99.90;;;;;;5132193;28;20214;-65
2023/04/27 05:12:53;;;;;;;9.55;5.15;;;6.70;99.90;;;;;;5133797;27;20562;-64
2023/04/27 05:15:20;;;;;;;8.45;4.63;;;6.70;99.90;;;;;;5133916;28;20210;-65
2023/04/27 05:17:46;;;;;;;6.68;4.50;;;6.70;99.90;;;;;;5131121;28;20199;-67
2023/04/27 05:20:15;;;;;;;6.83;5.03;;;6.70;99.90;;;;;;5130586;28;20571;-65
2023/04/27 05:22:41;;;;;;;5.60;4.60;;;6.70;99.90;;;;;;5120036;27;20467;-66
2023/04/27 05:25:09;;;;;;;7.72;4.57;;;6.80;99.90;;;;;;5117738;28;20214;-63
2023/04/27 05:27:39;;;;;;;5.57;4.75;;;6.90;99.90;;;;;;5116987;28;20207;-61
2023/04/27 05:30:07;;;;;;;8.85;4.72;;;6.90;99.50;;;;;;5117421;28;20352;-64
2023/04/27 05:32:36;;;;;;;8.60;5.38;;;6.80;98.30;;;;;;5117882;28;20226;-64
2023/04/27 05:35:06;;;;;;;5.95;4.70;;;6.60;98.00;;;;;;5117643;28;20200;-64
2023/04/27 05:37:34;;;;;;;12.60;4.90;;;6.40;97.90;;;;;;5116686;28;20200;-63
2023/04/27 05:40:01;;;;;;;8.40;4.75;;;6.20;98.00;;;;;;5117955;28;20196;-64
2023/04/27 05:42:27;;;;;;;8.70;4.80;;;6.00;98.40;;;;;;5117084;28;20222;-64
2023/04/27 05:44:54;;;;;;;9.20;5.05;;;5.90;98.50;;;;;;5117940;28;20200;-63
2023/04/27 05:47:21;;;;;;;9.05;5.38;;;5.80;98.90;;;;;;5117383;28;20214;-64
2023/04/27 05:49:51;;;;;;;10.18;5.30;;;5.90;99.40;;;;;;5117046;28;20206;-64
2023/04/27 05:52:18;;;;;;;10.77;4.90;;;5.90;99.50;;;;;;5118390;28;20208;-64
2023/04/27 05:54:48;;;;;;;6.65;4.80;;;5.90;99.20;;;;;;5116541;28;20267;-63
2023/04/27 05:57:15;;;;;;;10.57;5.20;;;6.00;99.00;;;;;;5117154;28;20190;-63
2023/04/27 05:59:42;;;;;;;6.15;4.60;;;6.00;98.70;;;;;;5116701;28;20199;-64
2023/04/27 06:02:09;;;;;;;5.95;4.55;;;6.10;98.50;;;;;;5117562;28;20207;-63
2023/04/27 06:04:36;;;;;;;7.55;4.53;;;6.10;98.00;;;;;;5117842;28;20224;-63
2023/04/27 06:07:07;;;;;;;13.02;4.70;;;6.20;97.60;;;;;;5116902;28;20299;-62
2023/04/27 06:09:34;;;;;;;9.43;4.50;;;6.20;97.20;;;;;;5117161;28;20669;-61
2023/04/27 06:12:03;;;;;;;8.23;4.30;;;6.20;96.90;;;;;;5115323;28;20752;-64
2023/04/27 06:14:30;;;;;;;6.20;3.90;;;6.20;96.70;;;;;;5115288;28;20281;-63
2023/04/27 06:17:01;;;;;;;9.18;3.92;;;6.20;96.60;;;;;;5115156;28;20626;-64
2023/04/27 06:19:28;;;;;;;9.07;4.07;;;6.30;96.50;;;;;;5116675;28;20263;-64
2023/04/27 06:21:55;;;;;;;5.90;3.63;;;6.30;96.10;;;;;;5121526;28;20279;-64
2023/04/27 06:24:23;;;;;;;6.20;3.45;;;6.40;95.70;;;;;;5116121;28;20704;-64
2023/04/27 06:29:25;;;;;;;6.80;3.65;;;6.50;94.80;;;;;;5097981;28;20212;-60
2023/04/27 06:31:52;;;;;;;12.38;4.60;;;6.60;94.40;;;;;;5103189;28;20220;-61
2023/04/27 06:34:19;;;;;;;3.65;3.20;;;6.60;94.20;;;;;;5100133;28;20215;-60
2023/04/27 06:36:45;;;;;;;5.38;3.40;;;6.70;93.90;;;;;;5099366;28;20278;-60
2023/04/27 06:39:12;;;;;;;4.40;3.65;;;6.80;93.70;;;;;;5099361;28;20227;-60
2023/04/27 06:41:39;;;;;;;11.50;3.95;;;6.80;93.00;;;;;;5098098;28;20207;-60
2023/04/27 06:44:06;;;;;;;3.97;3.30;;;6.90;92.90;;;;;;5099566;28;20200;-61
2023/04/27 06:46:34;;;;;;;7.38;3.05;;;6.90;92.60;;;;;;5098774;28;20204;-60
2023/04/27 06:49:01;;;;;;;6.70;3.75;;;7.00;92.30;;;;;;5097914;28;20220;-60
2023/04/27 06:51:28;;;;;;;7.68;4.00;;;7.00;91.90;;;;;;5098815;28;20220;-61
2023/04/27 06:53:56;;;;;;;4.82;3.45;;;7.10;91.80;;;;;;5097990;28;20231;-60
2023/04/27 06:56:22;;;;;;;4.80;3.60;;;7.20;91.60;;;;;;5097365;28;20211;-59
2023/04/27 06:58:49;;;;;;;4.13;2.60;;;7.30;91.20;;;;;;5097890;28;20661;-58
2023/04/27 07:01:16;;;;;;;5.85;3.38;;;7.40;90.80;;;;;;5097714;28;20276;-61
2023/04/27 07:03:45;;;;;;;6.20;3.10;;;7.40;90.10;;;;;;5098156;28;20205;-59
2023/04/27 07:06:11;;;;;;;3.78;2.70;;;7.50;89.60;;;;;;5098495;28;20196;-62
2023/04/27 07:08:38;;;;;;;4.07;3.10;;;7.50;89.00;;;;;;5098223;28;20224;-60
2023/04/27 07:11:05;;;;;;;6.35;3.40;;;7.60;87.90;;;;;;5097694;28;20216;-61
2023/04/27 07:13:32;;;;;;;6.43;3.70;;;7.70;87.10;;;;;;5098773;28;20207;-60
2023/04/27 07:15:59;;;;;;;4.07;3.28;;;7.80;86.20;;;;;;5099754;28;20562;-61
2023/04/27 07:18:27;;;;;;;4.28;3.13;;;8.00;85.30;;;;;;5102327;28;20235;-59
2023/04/27 07:20:56;;;;;;;7.05;3.90;;;8.10;84.00;;;;;;5100031;28;20201;-61
2023/04/27 07:23:23;;;;;;;4.30;3.20;;;8.20;82.40;;;;;;5099608;28;20204;-60
2023/04/27 07:25:50;;;;;;;5.07;3.47;;;8.30;81.50;;;;;;5102054;28;20200;-62
2023/04/27 07:28:17;;;;;;;5.25;3.33;;;8.40;81.10;;;;;;5100160;28;20239;-62
2023/04/27 07:30:44;;;;;;;4.55;3.88;;;8.50;79.60;;;;;;5104458;28;20227;-61
2023/04/27 07:33:11;;;;;;;4.93;2.83;;;8.50;78.80;;;;;;5109528;28;20196;-61
2023/04/27 07:35:39;;;;;;;3.22;2.58;;;8.50;77.40;;;;;;5109914;28;20201;-60
2023/04/27 07:38:07;;;;;;;4.93;3.10;;;8.50;76.40;;;;;;5107858;28;20250;-60
2023/04/27 07:40:35;;;;;;;3.75;2.90;;;8.60;76.10;;;;;;5105101;28;20220;-61
2023/04/27 07:43:01;;;;;;;3.20;2.95;;;8.70;74.40;;;;;;5105074;28;20203;-61
2023/04/27 07:45:31;;;;;;;5.60;2.83;;;8.80;72.80;;;;;;5106820;28;20205;-60
2023/04/27 07:47:59;;;;;;;5.70;3.20;;;8.90;71.50;;;;;;5105889;28;20689;-61
2023/04/27 07:50:26;;;;;;;4.50;3.55;;;8.80;70.40;;;;;;5107620;28;20263;-60
2023/04/27 07:52:53;;;;;;;2.80;2.60;;;8.90;70.50;;;;;;5104596;28;20196;-60
2023/04/27 07:55:22;;;;;;;3.10;2.10;;;9.00;69.80;;;;;;5109367;28;20454;-60
2023/04/27 07:57:49;;;;;;;3.73;2.50;;;9.20;68.30;;;;;;5110902;28;20458;-60
2023/04/27 08:00:16;;;;;;;2.93;2.43;;;9.30;65.30;;;;;;5110526;28;20442;-60
2023/04/27 08:02:43;;;;;;;5.20;2.60;;;9.30;64.30;;;;;;5109545;28;20472;-61
2023/04/27 08:05:10;;;;;;;3.80;2.20;;;9.40;63.40;;;;;;5102488;28;20451;-59
2023/04/27 08:07:37;;;;;;;6.10;2.60;;;9.50;62.60;;;;;;5110718;28;20455;-60
2023/04/27 08:10:04;;;;;;;3.95;2.08;;;9.40;62.00;;;;;;5105524;28;20441;-60
2023/04/27 08:12:32;;;;;;;3.20;1.88;;;9.30;61.80;;;;;;5105156;28;20220;-60
2023/04/27 08:14:59;;;;;;;4.77;2.33;;;9.40;61.10;;;;;;5104848;28;20215;-60
2023/04/27 08:17:26;;;;;;;3.25;2.00;;;9.50;59.40;;;;;;5105203;28;20458;-61
2023/04/27 08:19:53;;;;;;;2.37;1.80;;;9.70;58.80;;;;;;5105774;28;20196;-60
2023/04/27 08:22:20;;;;;;;3.00;2.13;;;9.90;57.20;;;;;;5105448;28;20578;-60
2023/04/27 08:24:46;;;;;;;6.03;2.57;;;9.90;56.20;;;;;;5102050;28;20446;-60
2023/04/27 08:27:14;;;;;;;5.95;2.20;;;9.60;56.00;;;;;;5098862;28;20519;-61
2023/04/27 08:29:47;;;;;;;5.80;2.30;;;9.40;56.40;;;;;;5098897;28;20180;-61
2023/04/27 08:32:14;;;;;;;5.03;2.30;;;9.20;56.80;;;;;;5097817;28;20208;-60
2023/04/27 08:34:41;;;;;;;2.25;2.05;;;9.10;57.10;;;;;;5097750;28;20455;-59
2023/04/27 08:37:08;;;;;;;4.20;2.40;;;9.10;57.60;;;;;;5097010;28;20204;-58
2023/04/27 08:39:35;;;;;;;2.35;2.15;;;9.30;57.40;;;;;;5096069;28;20266;-59
2023/04/27 08:42:02;;;;;;;3.60;1.50;;;9.50;56.60;;;;;;5097522;28;20192;-60
2023/04/27 08:44:29;;;;;;;3.00;2.23;;;9.70;55.90;;;;;;5096761;28;20441;-61
2023/04/27 08:46:57;;;;;;;2.63;1.43;;;10.00;53.90;;;;;;5096169;28;20442;-60
2023/04/27 08:49:24;;;;;;;4.23;2.27;;;10.30;52.80;;;;;;5095884;28;20944;-63
2023/04/27 08:51:51;;;;;;;2.60;2.07;;;10.60;51.60;;;;;;5097097;28;20937;-60
2023/04/27 08:54:19;;;;;;;4.40;2.30;;;10.80;50.90;;;;;;5095999;28;20442;-60
2023/04/27 08:56:46;;;;;;;4.03;2.30;;;11.00;50.30;;;;;;5097699;28;20495;-60
2023/04/27 08:59:16;;;;;;;5.13;2.20;;;11.20;49.70;;;;;;5100569;28;20458;-60
2023/04/27 09:01:47;;;;;;;3.53;2.90;;;11.40;49.20;;;;;;5100465;28;20456;-62
2023/04/27 09:04:16;;;;;;;4.30;2.90;;;11.60;49.10;;;;;;5099810;28;20450;-61
2023/04/27 09:06:43;;;;;;;5.77;2.20;;;11.70;48.50;;;;;;5101214;28;20815;-61
2023/04/27 09:09:10;;;;;;;3.30;2.37;;;11.90;48.10;;;;;;5099520;28;20454;-59
2023/04/27 09:11:39;;;;;;;5.13;2.93;;;12.00;47.70;;;;;;5103085;28;20542;-61
2023/04/27 09:14:17;;;;;;;3.93;2.47;;;12.00;47.20;;;;;;5102252;28;20460;-61
2023/04/27 09:16:44;;;;;;;3.17;2.47;;;11.90;46.80;;;;;;5102420;28;20426;-61
2023/04/27 09:19:11;;;;;;;4.43;2.83;;;11.70;46.90;;;;;;5102859;28;20531;-59
2023/04/27 09:21:39;;;;;;;2.80;2.57;;;11.50;46.80;;;;;;5103271;28;20430;-60
2023/04/27 09:24:13;;;;;;;2.93;2.50;;;11.20;47.00;;;;;;5101320;28;20442;-61
2023/04/27 09:26:41;;;;;;;3.73;3.03;;;11.00;47.20;;;;;;5100937;28;20486;-61
2023/04/27 09:29:08;;;;;;;7.43;2.93;;;10.70;47.50;;;;;;5100110;28;20470;-60
2023/04/27 09:31:36;;;;;;;3.60;2.57;;;10.60;47.80;;;;;;5099607;28;20478;-61
2023/04/27 09:34:05;;;;;;;3.23;2.53;;;10.60;47.80;;;;;;5100916;28;20442;-62
2023/04/27 09:36:32;;;;;;;3.97;2.60;;;10.60;47.60;;;;;;5105851;28;20474;-63
2023/04/27 09:39:03;;;;;;;2.47;2.27;;;10.80;47.40;;;;;;5106919;28;20474;-62
2023/04/27 09:41:31;;;;;;;5.10;2.27;;;11.00;47.30;;;;;;5105634;28;20427;-62
2023/04/27 09:44:00;;;;;;;3.30;2.30;;;11.30;46.90;;;;;;5107189;28;20442;-62
2023/04/27 09:46:29;;;;;;;3.80;2.33;;;11.50;45.90;;;;;;5105881;28;20443;-63
2023/04/27 09:48:56;;;;;;;3.50;3.03;;;11.80;44.80;;;;;;5104694;28;20988;-63
2023/04/27 09:51:23;;;;;;;3.10;2.40;;;12.10;44.20;;;;;;5100016;28;20485;-62
2023/04/27 09:53:53;;;;;;;4.20;2.00;;;12.40;43.40;;;;;;5101549;28;20447;-63
2023/04/27 09:56:37;;;;;;;4.10;2.37;;;12.60;42.70;;;;;;5103933;28;20435;-63
2023/04/27 09:59:24;;;;;;;2.40;2.20;;;12.60;42.00;;;;;;5102265;28;20442;-63
2023/04/27 10:01:54;;;;;;;2.97;2.67;;;12.50;42.40;;;;;;5103631;28;20431;-65
2023/04/27 10:04:51;;;;;;;8.40;3.20;;;12.50;42.50;;;;;;5101453;28;20490;-63
2023/04/27 10:07:18;;;;;;;3.07;2.77;;;12.70;42.90;;;;;;5102130;28;20470;-63
2023/04/27 10:09:46;;;;;;;5.00;2.27;;;13.00;42.40;;;;;;5102977;28;20473;-63
2023/04/27 10:12:17;;;;;;;5.87;2.60;;;13.30;42.20;;;;;;5101578;28;20482;-64
2023/04/27 10:14:51;;;;;;;3.40;2.27;;;13.50;41.30;;;;;;5100789;28;20423;-63
2023/04/27 10:17:19;;;;;;;5.00;2.40;;;13.60;40.80;;;;;;5099641;28;20457;-64
2023/04/27 10:19:56;;;;;;;2.67;2.37;;;13.60;40.40;;;;;;5100211;28;20449;-64
2023/04/27 10:22:24;;;;;;;3.63;2.07;;;13.50;40.20;;;;;;5100130;28;20495;-63
2023/04/27 10:24:51;;;;;;;3.80;2.27;;;13.40;40.10;;;;;;5100675;28;20442;-65
2023/04/27 10:27:21;;;;;;;4.40;2.20;;;13.30;39.90;;;;;;5099834;28;20526;-63
2023/04/27 10:29:51;;;;;;;2.10;1.73;;;13.00;39.60;;;;;;5100333;28;20904;-62
2023/04/27 10:32:23;;;;;;;3.93;2.27;;;12.70;40.00;;;;;;5100191;28;20482;-63
2023/04/27 10:34:51;;;;;;;2.70;2.23;;;12.50;39.90;;;;;;5099594;28;20443;-62
2023/04/27 10:37:23;;;;;;;3.30;1.87;;;12.50;39.70;;;;;;5099545;28;20467;-63
2023/04/27 10:39:50;;;;;;;2.70;2.20;;;12.50;39.40;;;;;;5100786;28;20541;-62
2023/04/27 10:42:28;;;;;;;3.10;2.30;;;12.70;39.20;;;;;;5105065;28;20430;-60
2023/04/27 10:44:57;;;;;;;3.87;2.43;;;13.00;39.00;;;;;;5105525;28;20907;-61
2023/04/27 10:47:24;;;;;;;2.50;2.27;;;13.40;38.50;;;;;;5105847;28;20470;-61
2023/04/27 10:49:53;;;;;;;11.97;3.10;;;13.80;38.10;;;;;;5102845;28;20446;-60
2023/04/27 10:52:20;;;;;;;3.27;2.50;;;14.30;37.40;;;;;;5101663;28;20883;-60
2023/04/27 10:54:47;;;;;;;5.93;2.40;;;14.60;36.90;;;;;;5100913;28;20449;-61
2023/04/27 10:57:13;;;;;;;2.53;2.33;;;14.80;36.70;;;;;;5100334;28;20450;-60
2023/04/27 10:59:50;;;;;;;3.90;2.23;;;14.90;36.60;;;;;;5098958;28;20538;-60
2023/04/27 11:02:18;;;;;;;2.67;2.47;;;14.90;35.80;;;;;;5099577;28;20423;-63
2023/04/27 11:04:45;;;;;;;2.90;2.60;;;14.60;36.30;;;;;;5098807;28;20447;-62
2023/04/27 11:07:12;;;;;;;2.27;2.07;;;14.30;36.00;;;;;;5098809;28;20560;-60
2023/04/27 11:09:42;;;;;;;2.87;2.20;;;14.10;36.20;;;;;;5098300;28;20442;-62
2023/04/27 11:12:12;;;;;;;3.87;2.57;;;13.90;36.40;;;;;;5098568;28;20470;-61
2023/04/27 11:14:39;;;;;;;2.10;1.80;;;13.70;36.20;;;;;;5097429;28;20874;-60
2023/04/27 11:17:08;;;;;;;3.20;2.10;;;13.50;36.20;;;;;;5096885;28;20464;-61
2023/04/27 11:19:45;;;;;;;3.23;2.10;;;13.50;36.40;;;;;;5096835;28;20449;-59
2023/04/27 11:22:12;;;;;;;3.17;2.40;;;13.70;36.30;;;;;;5098519;28;20480;-61
2023/04/27 11:24:47;;;;;;;2.57;1.90;;;14.10;35.80;;;;;;5098990;28;20443;-60
2023/04/27 11:27:14;;;;;;;2.53;2.33;;;14.30;34.90;;;;;;5098933;28;20556;-63
2023/04/27 11:29:41;;;;;;;2.77;2.50;;;14.50;34.90;;;;;;5098976;28;20430;-62
2023/04/27 11:32:18;;;;;;;3.00;2.17;;;14.80;34.50;;;;;;5098670;28;20589;-62
2023/04/27 11:34:49;;;;;;;2.40;2.20;;;15.20;34.20;;;;;;5098845;28;20426;-62
2023/04/27 11:37:22;;;;;;;3.50;2.17;;;15.50;33.60;;;;;;5097267;28;20470;-59
2023/04/27 11:39:49;;;;;;;5.33;2.57;;;15.70;33.30;;;;;;5096605;28;20817;-63
2023/04/27 11:42:21;;;;;;;2.20;2.00;;;15.70;32.90;;;;;;5095916;28;20924;-60
2023/04/27 11:44:55;;;;;;;2.53;2.33;;;15.80;32.80;;;;;;5096896;28;20468;-61
2023/04/27 11:47:24;;;;;;;3.07;2.33;;;15.90;32.70;;;;;;5096737;28;20465;-60
2023/04/27 11:49:52;;;;;;;2.70;2.40;;;15.80;32.50;;;;;;5097038;28;20994;-60
2023/04/27 11:52:19;;;;;;;4.93;2.20;;;15.40;32.60;;;;;;5097595;28;20488;-59
2023/04/27 11:54:49;;;;;;;4.97;2.63;;;15.10;32.90;;;;;;5097771;28;20446;-61
2023/04/27 11:57:16;;;;;;;2.77;2.57;;;14.90;33.20;;;;;;5097847;28;20469;-60
2023/04/27 11:59:43;;;;;;;3.70;2.63;;;15.10;33.40;;;;;;5099232;28;20453;-60
2023/04/27 12:02:10;;;;;;;5.30;3.00;;;15.60;32.60;;;;;;5098310;28;20440;-61
2023/04/27 12:04:38;;;;;;;5.93;2.40;;;15.90;32.20;;;;;;5098535;28;20537;-60
2023/04/27 12:07:05;;;;;;;4.57;2.53;;;16.80;31.90;;;;;;5099086;28;20438;-60
2023/04/27 12:09:32;;;;;;;3.50;2.33;;;17.70;31.00;;;;;;5097928;28;20450;-61
2023/04/27 12:11:59;;;;;;;3.47;2.20;;;18.50;30.30;;;;;;5099940;28;20540;-60
2023/04/27 12:14:26;;;;;;;2.57;2.37;;;19.00;29.40;;;;;;5100327;28;20442;-62
2023/04/27 12:16:53;;;;;;;5.77;2.90;;;19.10;28.90;;;;;;5099264;28;20454;-61
2023/04/27 12:19:19;;;;;;;3.20;2.27;;;19.00;28.90;;;;;;5098951;28;20513;-62
2023/04/27 12:21:48;;;;;;;4.60;2.30;;;18.80;29.00;;;;;;5098759;28;20449;-61
2023/04/27 12:24:15;;;;;;;3.60;2.00;;;18.40;29.00;;;;;;5099605;28;20541;-60
2023/04/27 12:26:41;;;;;;;3.47;2.40;;;18.10;29.50;;;;;;5097714;28;20943;-61
2023/04/27 12:29:08;;;;;;;4.20;2.47;;;17.70;29.90;;;;;;5097856;28;20481;-61
2023/04/27 12:31:35;;;;;;;3.70;2.50;;;17.10;30.40;;;;;;5098627;28;20447;-63
2023/04/27 12:34:02;;;;;;;5.30;2.07;;;16.50;30.90;;;;;;5102293;28;20550;-61
2023/04/27 12:36:30;;;;;;;4.30;2.70;;;16.10;31.10;;;;;;5102005;28;20513;-59
2023/04/27 12:39:00;;;;;;;2.20;2.00;;;15.70;31.50;;;;;;5101458;28;20466;-61
2023/04/27 12:41:27;;;;;;;3.83;2.53;;;15.40;32.10;;;;;;5099974;28;20495;-61
2023/04/27 12:43:54;;;;;;;5.20;2.50;;;15.30;32.40;;;;;;5099215;28;20449;-61
2023/04/27 12:46:20;;;;;;;3.07;2.10;;;15.30;32.50;;;;;;5100725;28;20450;-59
2023/04/27 12:48:47;;;;;;;5.40;2.80;;;15.30;32.50;;;;;;5122429;22;20466;-62
2023/04/27 12:51:16;;;;;;;3.27;2.47;;;15.20;32.50;;;;;;5076403;28;20499;-63
2023/04/27 12:53:42;;;;;;;2.97;2.30;;;15.30;33.00;;;;;;5076495;28;20528;-63
2023/04/27 12:56:11;;;;;;;3.33;2.40;;;15.60;33.00;;;;;;5076478;28;20522;-64
2023/04/27 12:58:38;;;;;;;6.47;2.90;;;15.90;32.60;;;;;;5076142;28;20447;-64
2023/04/27 13:01:06;;;;;;;3.87;2.50;;;16.00;32.00;;;;;;5076487;28;20546;-64